• Join FlightAware (Why Join?)
  • Login
  • US Flag 
04:17PM EDT


 

Airport Tracker/Info


-or-


 

Live Flight TrackerFlight Track Log ✈ N884FT ✈ 11-Sep-2013 ✈ KMLB - KFXE

Flight Track Log - Related Links

Times and Time Zones

All times are in EDT time to prevent confusion due to time zone crossing. See the N884FT flight status page for this flight to view local times or setup timezone preferences in your user account.

Time Position Orientation Groundspeed Altitude Reporting Facility
EDT Latitude Longitude Course Direction KTS MPH feet Rate Location/Type
09:26AM 28.1000 -80.6167 360° North 72 83 600  Level Orlando TRACON
09:27AM 28.1000 -80.6167 60° Northeast 82 94 1,000 720 Climbing Orlando TRACON
09:28AM 28.1167 -80.5833 60° Northeast 104 120 1,600 420 Climbing Orlando TRACON
09:29AM 28.1000 -80.5500 120° Southeast 112 129 1,900 300 Climbing Orlando TRACON
09:30AM 28.0833 -80.5500 180° South 140 161 2,300 480 Climbing Orlando TRACON
09:31AM 28.0500 -80.5833 221° Southwest 124 143 2,900 600 Climbing Orlando TRACON
09:32AM 28.0500 -80.6167 270° West 122 140 3,600 300 Climbing Orlando TRACON
09:34AM 28.0172 -80.7139 249° West 151 174 4,000 120 Climbing Miami Center
09:35AM 28.0033 -80.7606 251° West 156 180 4,000  Level Miami Center
09:36AM 27.9900 -80.8000 249° West 166 191 4,000  Level Miami Center
09:37AM 27.9503 -80.7939 172° South 128 147 4,000  Level Miami Center
09:38AM 27.9003 -80.7897 176° South 159 183 4,000  Level Miami Center
09:39AM 27.8547 -80.7858 176° South 165 190 4,000  Level Miami Center
09:40AM 27.8089 -80.7819 176° South 165 190 4,000  Level Miami Center
09:41AM 27.7672 -80.7781 175° South 160 184 4,000  Level Miami Center
09:42AM 27.7233 -80.7744 176° South 160 184 4,000  Level Miami Center
09:43AM 27.6733 -80.7703 176° South 160 184 4,000  Level Miami Center
09:44AM 27.6278 -80.7642 173° South 160 184 4,000  Level Miami Center
09:45AM 27.5817 -80.7625 178° South 160 184 4,000 180 Level Miami Center
09:46AM 27.5464 -80.7567 172° South 160 184 4,400 480 Climbing Miami Center
09:47AM 27.5047 -80.7528 175° South 155 178 5,000 540 Climbing Miami Center
09:48AM 27.4589 -80.7489 176° South 155 178 5,500 420 Climbing Miami Center
09:49AM 27.4194 -80.7453 175° South 155 178 5,900 240 Climbing Miami Center
09:50AM 27.3778 -80.7414 175° South 155 178 6,000  Climbing Miami Center
09:51AM 27.3361 -80.7378 176° South 165 190 6,000  Level Miami Center
09:52AM 27.2925 -80.7339 175° South 165 190 6,000  Level Miami Center
09:53AM 27.2425 -80.7300 176° South 160 184 6,000  Level Miami Center
09:54AM 27.1986 -80.7261 175° South 160 184 6,000  Level Miami Center
09:55AM 27.1550 -80.7222 175° South 160 184 6,000  Level Miami Center
09:56AM 27.1153 -80.7186 175° South 160 184 6,000  Level Miami Center
09:57AM 27.0717 -80.7150 176° South 160 184 6,000 -300 Level Miami Center
09:58AM 27.0217 -80.7086 174° South 160 184 5,500 -540 Descending Miami Center
09:59AM 26.9736 -80.7047 176° South 166 191 5,000 -540 Descending Miami Center
10:00AM 26.9278 -80.7008 176° South 178 205 4,500 -180 Descending Miami Center
10:02AM 26.8553 -80.6930 174° South  Level FlightAware Approximate
10:07AM 26.6231 -80.6167 158° South 155 178 4,000  Level Miami Center
10:08AM 26.6067 -80.6089 157° South 151 174 4,000 -300 Level Miami Center
10:09AM 26.5793 -80.5897 156° South  Level FlightAware Approximate
10:09AM 26.5586 -80.6053 176° South 176 203 3,600  Level Miami Center
10:10AM 26.5406 -80.5715 158° South  Level FlightAware Approximate
10:10AM 26.5064 -80.6083 183° South 172 198 3,100  Level Miami Center
10:11AM 26.5017 -80.5538 158° South  Level FlightAware Approximate
10:11AM 26.4625 -80.6067 178° South 167 192 3,000  Level Miami Center
10:12AM 26.4628 -80.5361 158° South  Level FlightAware Approximate
10:12AM 26.4208 -80.6100 184° South 156 180 3,000  Level Miami Center
10:13AM 26.3706 -80.6086 179° South 157 181 3,000  Level Miami Center
10:14AM 26.3292 -80.5956 164° South 143 165 3,000 -180 Level Miami Center
10:15AM 26.3050 -80.5647 131° Southeast 153 176 2,700 -480 Descending Miami Center
10:16AM 26.2744 -80.5289 134° Southeast 154 177 2,100 -420 Descending Miami Center
10:17AM 26.2481 -80.4958 132° Southeast 147 169 2,000 -60 Descending Miami Center
10:18AM 26.2219 -80.4625 131° Southeast 139 160 2,000  Level Miami Center
10:19AM 26.1933 -80.4292 134° Southeast 147 169 2,000  Level Miami Center
10:20AM 26.1756 -80.3942 120° Southeast 135 155 2,000  Level Miami Center
10:21AM 26.1764 -80.3525 89° East 139 160 2,000  Level Miami Center
10:22AM 26.1858 -80.3156 74° East 131 151 2,000 -180 Level Miami Center
10:23AM 26.1844 -80.2764 92° East 95 109 1,700 -420 Descending Miami Center
10:24AM 26.1894 -80.2508 78° East 93 107 1,200 -540 Descending Miami Center
10:25AM 26.1919 -80.2233 84° East 89 102 700 -540 Descending Miami Center
10:26AM 26.1928 -80.1931 88° East 95 109 200 -540 Descending Miami Center
10:28AM 26.1833 -80.1667 77° East  Level FlightAware Approximate